Time;durP1;ratioP1;P1;durP2;ratioP2;P2;SDS_P1;SDS_P2;PMS_P1;PMS_P2;Temp;Humidity;BMP_temperature;BMP_pressure;BME280_temperature;BME280_humidity;BME280_pressure;Samples;Min_cycle;Max_cycle;Signal;HPM_P1;HPM_P2
2023/10/18 00:01:41;;;;;;;6.03;2.60;;;;;;;;;;4976073;28;87504;-77
2023/10/18 00:04:10;;;;;;;7.05;2.65;;;;;;;;;;4972615;28;88533;-77
2023/10/18 00:06:37;;;;;;;5.25;2.42;;;;;;;;;;4973708;28;88024;-77
2023/10/18 00:11:49;;;;;;;5.45;2.55;;;;;;;;;;4973647;28;88087;-77
2023/10/18 00:14:18;;;;;;;5.95;2.35;;;;;;;;;;4973121;28;88595;-77
2023/10/18 00:16:44;;;;;;;5.60;2.55;;;;;;;;;;4973746;28;88495;-78
2023/10/18 00:19:13;;;;;;;5.38;2.53;;;;;;;;;;4976898;28;88382;-77
2023/10/18 00:21:39;;;;;;;5.72;2.53;;;;;;;;;;4973861;28;88801;-77
2023/10/18 00:24:06;;;;;;;6.90;2.70;;;;;;;;;;4972755;28;88155;-76
2023/10/18 00:26:33;;;;;;;5.88;2.75;;;;;;;;;;4974288;28;87518;-76
2023/10/18 00:29:00;;;;;;;5.35;2.40;;;;;;;;;;4968990;28;89843;-76
2023/10/18 00:31:27;;;;;;;5.68;2.50;;;;;;;;;;4973433;28;88189;-76
2023/10/18 00:33:54;;;;;;;6.45;2.70;;;;;;;;;;4973166;28;88749;-76
2023/10/18 00:36:20;;;;;;;6.45;2.53;;;;;;;;;;4972552;28;90301;-76
2023/10/18 00:38:48;;;;;;;6.13;2.50;;;;;;;;;;4973213;28;89849;-77
2023/10/18 00:41:34;;;;;;;6.38;2.80;;;;;;;;;;4974570;28;89625;-76
2023/10/18 00:44:00;;;;;;;5.70;2.30;;;;;;;;;;4972682;28;88028;-76
2023/10/18 00:46:28;;;;;;;6.28;2.50;;;;;;;;;;4972048;27;88436;-77
2023/10/18 00:48:55;;;;;;;5.38;2.63;;;;;;;;;;4968174;28;95649;-76
2023/10/18 00:51:24;;;;;;;5.53;2.53;;;;;;;;;;4970453;28;92021;-76
2023/10/18 00:53:51;;;;;;;6.32;2.55;;;;;;;;;;4970275;28;92534;-77
2023/10/18 00:56:18;;;;;;;5.55;2.50;;;;;;;;;;4969269;28;95795;-77
2023/10/18 00:58:48;;;;;;;5.35;2.50;;;;;;;;;;4969679;28;95347;-77
2023/10/18 01:01:17;;;;;;;5.75;2.53;;;;;;;;;;4968097;28;98634;-76
2023/10/18 01:03:49;;;;;;;5.88;2.38;;;;;;;;;;4972258;28;93174;-77
2023/10/18 01:06:27;;;;;;;6.18;2.28;;;;;;;;;;4968963;28;93761;-76
2023/10/18 01:08:56;;;;;;;5.28;2.42;;;;;;;;;;4968250;28;94178;-76
2023/10/18 01:11:30;;;;;;;6.47;2.80;;;;;;;;;;4969454;28;92674;-76
2023/10/18 01:13:59;;;;;;;5.78;2.63;;;;;;;;;;4969941;28;92970;-76
2023/10/18 01:16:35;;;;;;;7.95;2.70;;;;;;;;;;4969689;28;96940;-76
2023/10/18 01:19:04;;;;;;;6.00;2.63;;;;;;;;;;4968053;28;92307;-77
2023/10/18 01:21:32;;;;;;;9.25;2.92;;;;;;;;;;4969583;28;92917;-77
2023/10/18 01:23:59;;;;;;;5.75;2.50;;;;;;;;;;4965736;28;97311;-76
2023/10/18 01:26:26;;;;;;;;;;;;;;;;;;4971687;28;92841;-77
2023/10/18 01:28:54;;;;;;;6.15;2.80;;;;;;;;;;4981155;28;109743;-76
2023/10/18 01:31:21;;;;;;;5.90;2.60;;;;;;;;;;4968030;28;92856;-77
2023/10/18 01:33:49;;;;;;;;;;;;;;;;;;4969802;28;93267;-76
2023/10/18 01:36:16;;;;;;;5.30;2.53;;;;;;;;;;4981334;28;95530;-77
2023/10/18 01:38:44;;;;;;;6.60;2.60;;;;;;;;;;4968087;28;92531;-76
2023/10/18 01:41:25;;;;;;;5.88;2.53;;;;;;;;;;4968531;28;97017;-76
2023/10/18 01:43:58;;;;;;;5.47;2.50;;;;;;;;;;4956608;28;94027;-76
2023/10/18 01:46:24;;;;;;;7.38;2.25;;;;;;;;;;4969195;27;92676;-76
2023/10/18 01:48:51;;;;;;;5.68;2.75;;;;;;;;;;4955260;28;95686;-76
2023/10/18 01:51:18;;;;;;;6.55;2.75;;;;;;;;;;4969132;28;92400;-76
2023/10/18 01:53:44;;;;;;;6.65;2.80;;;;;;;;;;4969632;28;92874;-76
2023/10/18 01:56:11;;;;;;;7.60;2.72;;;;;;;;;;4970126;28;92734;-76
2023/10/18 01:58:38;;;;;;;7.13;2.58;;;;;;;;;;4969215;28;92848;-76
2023/10/18 02:01:10;;;;;;;6.60;2.78;;;;;;;;;;4983985;28;95618;-76
2023/10/18 02:03:40;;;;;;;7.10;2.70;;;;;;;;;;4968390;28;93420;-76
2023/10/18 02:06:06;;;;;;;6.55;2.83;;;;;;;;;;4966895;28;91840;-76
2023/10/18 02:08:36;;;;;;;6.53;2.80;;;;;;;;;;4970193;28;95165;-76
2023/10/18 02:11:06;;;;;;;6.53;2.80;;;;;;;;;;4968268;28;92482;-76
2023/10/18 02:13:33;;;;;;;7.22;3.03;;;;;;;;;;4966050;28;95484;-76
2023/10/18 02:16:06;;;;;;;6.13;2.88;;;;;;;;;;4967444;28;93908;-76
2023/10/18 02:18:33;;;;;;;7.00;2.72;;;;;;;;;;4968717;28;93364;-77
2023/10/18 02:21:01;;;;;;;7.45;2.95;;;;;;;;;;4967031;28;94938;-76
2023/10/18 02:23:34;;;;;;;7.55;3.17;;;;;;;;;;4967053;28;92475;-76
2023/10/18 02:28:51;;;;;;;5.95;2.80;;;;;;;;;;4963754;28;94351;-76
2023/10/18 02:31:21;;;;;;;9.35;3.03;;;;;;;;;;4971481;28;92868;-76
2023/10/18 02:33:48;;;;;;;6.65;2.90;;;;;;;;;;4968789;28;93273;-76
2023/10/18 02:36:21;;;;;;;8.02;2.88;;;;;;;;;;4967115;28;94272;-76
2023/10/18 02:38:53;;;;;;;7.70;3.03;;;;;;;;;;4967521;28;95502;-76
2023/10/18 02:41:26;;;;;;;7.30;3.03;;;;;;;;;;4968692;28;95133;-76
2023/10/18 02:43:57;;;;;;;6.93;2.90;;;;;;;;;;4955896;28;93478;-76
2023/10/18 02:46:26;;;;;;;6.03;2.65;;;;;;;;;;4968403;28;93260;-76
2023/10/18 02:48:54;;;;;;;7.85;3.22;;;;;;;;;;4955479;28;93290;-76
2023/10/18 02:51:28;;;;;;;;;;;;;;;;;;4971545;28;93203;-77
2023/10/18 02:56:37;;;;;;;7.90;3.47;;;;;;;;;;4972158;28;96780;-76
2023/10/18 02:59:07;;;;;;;8.52;3.70;;;;;;;;;;4965205;28;92547;-76
2023/10/18 03:01:34;;;;;;;7.43;3.10;;;;;;;;;;4965402;28;93038;-76
2023/10/18 03:04:01;;;;;;;6.70;3.03;;;;;;;;;;4964039;28;96865;-76
2023/10/18 03:06:28;;;;;;;7.18;3.20;;;;;;;;;;4967832;28;92500;-76
2023/10/18 03:08:58;;;;;;;8.07;3.70;;;;;;;;;;4966951;28;93885;-76
2023/10/18 03:11:25;;;;;;;7.45;3.15;;;;;;;;;;4965796;28;95729;-77
2023/10/18 03:13:52;;;;;;;7.25;3.15;;;;;;;;;;4968007;28;92418;-76
2023/10/18 03:16:39;;;;;;;7.82;3.45;;;;;;;;;;4970409;28;93460;-76
2023/10/18 03:19:12;;;;;;;9.32;3.10;;;;;;;;;;4966896;28;92468;-76
2023/10/18 03:21:41;;;;;;;7.25;3.33;;;;;;;;;;4968624;28;92957;-76
2023/10/18 03:24:09;;;;;;;8.30;3.50;;;;;;;;;;4967057;28;94275;-77
2023/10/18 03:26:36;;;;;;;7.60;3.10;;;;;;;;;;4971522;28;93202;-77
2023/10/18 03:29:05;;;;;;;10.02;3.15;;;;;;;;;;4967686;28;95641;-77
2023/10/18 03:31:36;;;;;;;9.23;3.50;;;;;;;;;;4968476;28;95561;-78
2023/10/18 03:34:09;;;;;;;7.78;3.42;;;;;;;;;;4968674;28;92594;-77
2023/10/18 03:36:48;;;;;;;7.70;3.45;;;;;;;;;;4969926;28;92879;-77
2023/10/18 03:39:15;;;;;;;7.82;3.40;;;;;;;;;;4976223;28;93062;-77
2023/10/18 03:41:49;;;;;;;6.53;2.85;;;;;;;;;;4972642;28;99978;-77
2023/10/18 03:44:26;;;;;;;7.45;3.28;;;;;;;;;;4966043;28;94465;-77
2023/10/18 03:51:53;;;;;;;8.20;3.53;;;;;;;;;;4965932;28;95609;-77
2023/10/18 03:54:23;;;;;;;9.05;3.63;;;;;;;;;;4965812;28;95154;-76
2023/10/18 03:56:53;;;;;;;7.72;3.33;;;;;;;;;;4965536;28;99175;-76
2023/10/18 03:59:21;;;;;;;8.07;3.25;;;;;;;;;;4967724;28;93705;-76
2023/10/18 04:04:37;;;;;;;6.93;3.10;;;;;;;;;;4950174;28;99059;-76
2023/10/18 04:07:13;;;;;;;8.60;3.45;;;;;;;;;;4967756;28;92820;-76
2023/10/18 04:09:45;;;;;;;7.30;3.28;;;;;;;;;;4966908;28;94945;-76
2023/10/18 04:12:16;;;;;;;7.15;3.13;;;;;;;;;;4969331;28;92518;-77
2023/10/18 04:14:52;;;;;;;8.43;3.13;;;;;;;;;;4973546;28;92470;-76
2023/10/18 04:20:07;;;;;;;8.18;3.50;;;;;;;;;;4965342;28;94915;-77
2023/10/18 04:22:36;;;;;;;7.63;2.90;;;;;;;;;;4970402;28;92603;-76
2023/10/18 04:25:09;;;;;;;7.93;3.58;;;;;;;;;;4969820;28;92997;-77
2023/10/18 04:27:42;;;;;;;7.28;3.20;;;;;;;;;;4969484;28;92998;-76
2023/10/18 04:30:11;;;;;;;7.70;3.33;;;;;;;;;;4959818;28;93248;-77
2023/10/18 04:32:38;;;;;;;7.75;3.63;;;;;;;;;;4972800;28;93425;-77
2023/10/18 04:35:09;;;;;;;8.00;3.50;;;;;;;;;;4970797;28;92416;-76
2023/10/18 04:37:36;;;;;;;8.65;3.50;;;;;;;;;;4958537;28;93347;-77
2023/10/18 04:40:06;;;;;;;7.53;3.25;;;;;;;;;;4970198;28;92987;-77
2023/10/18 04:42:32;;;;;;;8.07;3.33;;;;;;;;;;4949613;28;92890;-77
2023/10/18 04:45:02;;;;;;;8.38;3.42;;;;;;;;;;4960202;28;95058;-77
2023/10/18 04:47:33;;;;;;;7.90;3.15;;;;;;;;;;4970707;28;92845;-78
2023/10/18 04:50:05;;;;;;;7.90;3.38;;;;;;;;;;4969832;28;93967;-78
2023/10/18 04:52:40;;;;;;;6.88;3.17;;;;;;;;;;4970010;28;94725;-77
2023/10/18 04:55:14;;;;;;;7.55;3.35;;;;;;;;;;4970761;28;92512;-77
2023/10/18 04:57:41;;;;;;;8.60;3.63;;;;;;;;;;4970338;28;92478;-77
2023/10/18 05:02:58;;;;;;;7.60;2.92;;;;;;;;;;4971015;28;91743;-77
2023/10/18 05:05:28;;;;;;;7.10;3.33;;;;;;;;;;4968331;28;94945;-77
2023/10/18 05:07:54;;;;;;;7.82;3.42;;;;;;;;;;4972395;28;94107;-77
2023/10/18 05:10:21;;;;;;;7.55;3.60;;;;;;;;;;4966634;28;94887;-76
2023/10/18 05:13:01;;;;;;;7.20;3.33;;;;;;;;;;4968288;28;94394;-77
2023/10/18 05:15:32;;;;;;;7.80;3.63;;;;;;;;;;4957080;28;92489;-78
2023/10/18 05:18:15;;;;;;;7.50;3.60;;;;;;;;;;4970205;28;92812;-77
2023/10/18 05:20:56;;;;;;;7.45;3.40;;;;;;;;;;4980055;28;100616;-77
2023/10/18 05:23:25;;;;;;;8.55;3.50;;;;;;;;;;4969901;28;92528;-77
2023/10/18 05:28:52;;;;;;;7.97;3.40;;;;;;;;;;4971051;28;96847;-77
2023/10/18 05:36:42;;;;;;;9.07;3.22;;;;;;;;;;4968551;28;94915;-78
2023/10/18 05:41:45;;;;;;;6.93;3.15;;;;;;;;;;4967655;28;96813;-78
2023/10/18 05:44:13;;;;;;;7.47;2.70;;;;;;;;;;4950989;28;92487;-77
2023/10/18 05:46:39;;;;;;;7.53;3.45;;;;;;;;;;4967945;28;95160;-77
2023/10/18 05:49:15;;;;;;;10.55;3.50;;;;;;;;;;4961555;28;95907;-77
2023/10/18 05:51:52;;;;;;;7.70;3.00;;;;;;;;;;4969873;28;92389;-77
2023/10/18 05:54:22;;;;;;;6.78;3.13;;;;;;;;;;4971204;28;93542;-77
2023/10/18 05:56:53;;;;;;;7.18;3.00;;;;;;;;;;4967412;28;92461;-77
2023/10/18 06:01:47;;;;;;;7.80;3.10;;;;;;;;;;4967733;28;95969;-77
2023/10/18 06:04:23;;;;;;;6.22;3.00;;;;;;;;;;4968340;28;92394;-78
2023/10/18 06:07:04;;;;;;;6.63;2.90;;;;;;;;;;4969485;28;92409;-76
2023/10/18 06:09:44;;;;;;;7.60;3.22;;;;;;;;;;4968387;28;93038;-77
2023/10/18 06:12:13;;;;;;;;;;;;;;;;;;4970121;28;92887;-77
2023/10/18 06:14:40;;;;;;;7.38;3.25;;;;;;;;;;4975013;28;92985;-77
2023/10/18 06:17:12;;;;;;;7.50;3.10;;;;;;;;;;4970556;27;92406;-77
2023/10/18 06:19:41;;;;;;;7.85;3.20;;;;;;;;;;4970190;28;92757;-77
2023/10/18 06:24:53;;;;;;;6.45;2.97;;;;;;;;;;4962990;28;92503;-77
2023/10/18 06:27:19;;;;;;;9.05;3.40;;;;;;;;;;4966315;28;95040;-77
2023/10/18 06:29:49;;;;;;;7.55;3.00;;;;;;;;;;4960183;28;92958;-77
2023/10/18 06:32:16;;;;;;;6.57;2.60;;;;;;;;;;4964998;28;92775;-77
2023/10/18 06:34:43;;;;;;;7.55;3.10;;;;;;;;;;4968365;28;92862;-77
2023/10/18 06:37:41;;;;;;;7.53;3.05;;;;;;;;;;4971704;28;94426;-77
2023/10/18 06:40:21;;;;;;;6.70;2.75;;;;;;;;;;4967026;28;94847;-78
2023/10/18 06:42:47;;;;;;;;;;;;;;;;;;4956744;28;93299;-78
2023/10/18 06:45:25;;;;;;;9.38;3.15;;;;;;;;;;4968457;28;92002;-78
2023/10/18 06:47:55;;;;;;;6.53;2.95;;;;;;;;;;4970665;28;93267;-77
2023/10/18 06:50:28;;;;;;;6.05;2.60;;;;;;;;;;4965835;28;94630;-78
2023/10/18 06:52:55;;;;;;;6.82;3.00;;;;;;;;;;4980856;28;95214;-78
2023/10/18 06:58:41;;;;;;;7.30;3.10;;;;;;;;;;4967730;28;93211;-78
2023/10/18 07:01:19;;;;;;;6.82;3.00;;;;;;;;;;4969161;28;92561;-78
2023/10/18 07:03:47;;;;;;;8.00;3.00;;;;;;;;;;4967236;28;93700;-78
2023/10/18 07:06:18;;;;;;;5.90;2.65;;;;;;;;;;4967415;28;92560;-77
2023/10/18 07:08:46;;;;;;;8.18;3.20;;;;;;;;;;4967950;28;95069;-78
2023/10/18 07:11:19;;;;;;;7.75;3.22;;;;;;;;;;4967836;28;93303;-78
2023/10/18 07:14:04;;;;;;;8.20;3.03;;;;;;;;;;4966583;28;92508;-77
2023/10/18 07:21:43;;;;;;;7.03;2.78;;;;;;;;;;4967521;28;92505;-78
2023/10/18 07:24:10;;;;;;;6.53;2.90;;;;;;;;;;4970140;28;93052;-78
2023/10/18 07:26:37;;;;;;;7.15;2.90;;;;;;;;;;4965981;28;92800;-77
2023/10/18 07:29:07;;;;;;;9.00;3.00;;;;;;;;;;4979466;28;92777;-77
2023/10/18 07:31:38;;;;;;;6.53;2.92;;;;;;;;;;4959329;28;94687;-77
2023/10/18 07:34:08;;;;;;;6.50;2.72;;;;;;;;;;4967807;28;92416;-78
2023/10/18 07:36:38;;;;;;;8.15;2.90;;;;;;;;;;4968411;28;93072;-78
2023/10/18 07:39:05;;;;;;;7.03;2.72;;;;;;;;;;4967564;28;93014;-77
2023/10/18 07:41:34;;;;;;;8.25;3.03;;;;;;;;;;4982406;28;92456;-78
2023/10/18 07:44:01;;;;;;;7.47;2.70;;;;;;;;;;4963300;28;95128;-78
2023/10/18 07:46:28;;;;;;;6.25;2.47;;;;;;;;;;4969167;28;93073;-78
2023/10/18 07:49:03;;;;;;;6.05;2.72;;;;;;;;;;4959266;28;92649;-78
2023/10/18 07:51:34;;;;;;;6.32;2.20;;;;;;;;;;4956730;28;93384;-78
2023/10/18 07:54:02;;;;;;;6.45;2.60;;;;;;;;;;4966879;28;92870;-78
2023/10/18 08:00:22;;;;;;;10.38;2.70;;;;;;;;;;4974725;28;94917;-78
2023/10/18 08:02:49;;;;;;;5.22;2.22;;;;;;;;;;4964192;28;92079;-78
2023/10/18 08:05:22;;;;;;;4.70;2.20;;;;;;;;;;4962122;28;92724;-77
2023/10/18 08:07:52;;;;;;;4.95;2.00;;;;;;;;;;4968277;28;95477;-78
2023/10/18 08:10:23;;;;;;;4.97;2.20;;;;;;;;;;4971347;28;102049;-78
2023/10/18 08:15:50;;;;;;;4.25;2.03;;;;;;;;;;4973843;28;92472;-78
2023/10/18 08:18:21;;;;;;;8.52;2.20;;;;;;;;;;4968798;28;92554;-77
2023/10/18 08:26:06;;;;;;;4.65;2.20;;;;;;;;;;4957276;28;92568;-77
2023/10/18 08:28:38;;;;;;;5.15;2.08;;;;;;;;;;4972611;28;97059;-75
2023/10/18 08:31:15;;;;;;;7.22;2.10;;;;;;;;;;4957840;28;92469;-76
2023/10/18 08:33:43;;;;;;;3.65;1.77;;;;;;;;;;4967528;28;93094;-76
2023/10/18 08:36:18;;;;;;;;;;;;;;;;;;4967732;28;94975;-76
2023/10/18 08:38:45;;;;;;;5.40;1.92;;;;;;;;;;4970548;28;105191;-76
2023/10/18 08:41:14;;;;;;;4.97;2.10;;;;;;;;;;4969213;28;93062;-76
2023/10/18 08:44:05;;;;;;;5.10;2.20;;;;;;;;;;4967930;28;92888;-76
2023/10/18 08:46:36;;;;;;;5.50;1.92;;;;;;;;;;4958366;28;97726;-76
2023/10/18 08:49:04;;;;;;;4.10;1.70;;;;;;;;;;4969468;28;93050;-76
2023/10/18 08:51:31;;;;;;;3.78;1.70;;;;;;;;;;4970081;28;92860;-76
2023/10/18 08:53:59;;;;;;;2.92;1.60;;;;;;;;;;4973277;28;92726;-76
2023/10/18 08:56:32;;;;;;;4.15;1.45;;;;;;;;;;4969810;28;93227;-76
2023/10/18 08:59:00;;;;;;;4.18;1.80;;;;;;;;;;4973247;28;93054;-76
2023/10/18 09:01:34;;;;;;;3.78;1.80;;;;;;;;;;4968330;28;95242;-76
2023/10/18 09:04:01;;;;;;;3.42;1.40;;;;;;;;;;4974499;28;92902;-76
2023/10/18 09:06:32;;;;;;;4.40;1.90;;;;;;;;;;4973321;28;94889;-76
2023/10/18 09:09:10;;;;;;;3.85;1.65;;;;;;;;;;4969598;28;93263;-76
2023/10/18 09:11:37;;;;;;;3.63;1.48;;;;;;;;;;4969927;28;92543;-76
2023/10/18 09:14:22;;;;;;;3.42;1.50;;;;;;;;;;4967904;28;93931;-76
2023/10/18 09:16:48;;;;;;;3.00;1.52;;;;;;;;;;4972591;28;93114;-76
2023/10/18 09:19:15;;;;;;;3.22;1.50;;;;;;;;;;4970416;28;92830;-76
2023/10/18 09:21:44;;;;;;;3.65;1.58;;;;;;;;;;4969489;28;93544;-76
2023/10/18 09:24:11;;;;;;;2.95;1.42;;;;;;;;;;4969754;28;93028;-76
2023/10/18 09:26:41;;;;;;;3.08;1.52;;;;;;;;;;4966877;28;95892;-76
2023/10/18 09:29:09;;;;;;;3.75;1.40;;;;;;;;;;4967357;28;96422;-75
2023/10/18 09:31:36;;;;;;;2.13;1.35;;;;;;;;;;4964360;28;92873;-75
2023/10/18 09:34:09;;;;;;;3.65;1.90;;;;;;;;;;4969160;28;93892;-75
2023/10/18 09:36:39;;;;;;;4.70;1.80;;;;;;;;;;4968183;28;92830;-75
2023/10/18 09:39:11;;;;;;;4.68;1.70;;;;;;;;;;4972049;28;93106;-76
2023/10/18 09:41:39;;;;;;;2.67;1.45;;;;;;;;;;4970054;28;92942;-76
2023/10/18 09:44:06;;;;;;;2.53;1.40;;;;;;;;;;4970026;28;92349;-75
2023/10/18 09:46:34;;;;;;;3.03;1.58;;;;;;;;;;4967420;28;92663;-76
2023/10/18 09:49:06;;;;;;;3.72;1.50;;;;;;;;;;4965001;28;93232;-75
2023/10/18 09:51:33;;;;;;;3.67;1.55;;;;;;;;;;4970047;28;95147;-76
2023/10/18 09:54:06;;;;;;;3.03;1.45;;;;;;;;;;4969566;28;95109;-75
2023/10/18 09:56:34;;;;;;;3.58;1.58;;;;;;;;;;4970132;28;93222;-76
2023/10/18 09:59:05;;;;;;;4.85;1.70;;;;;;;;;;4969258;28;92821;-76
2023/10/18 10:04:14;;;;;;;3.22;1.50;;;;;;;;;;4968664;28;92934;-76
2023/10/18 10:06:52;;;;;;;3.63;1.48;;;;;;;;;;4968999;28;92822;-76
2023/10/18 10:09:29;;;;;;;4.22;1.40;;;;;;;;;;4965088;28;94975;-76
2023/10/18 10:11:57;;;;;;;3.90;1.52;;;;;;;;;;4970012;28;93059;-77
2023/10/18 10:14:29;;;;;;;2.97;1.50;;;;;;;;;;4969384;28;100664;-77
2023/10/18 10:16:58;;;;;;;4.13;1.70;;;;;;;;;;4966131;28;98234;-77
2023/10/18 10:19:28;;;;;;;3.47;1.55;;;;;;;;;;4956828;28;94615;-78
2023/10/18 10:22:04;;;;;;;4.28;1.50;;;;;;;;;;4970008;28;92992;-78
2023/10/18 10:24:33;;;;;;;3.58;1.60;;;;;;;;;;4971122;28;100320;-79
2023/10/18 10:30:03;;;;;;;2.90;1.52;;;;;;;;;;4963325;28;93278;-77
2023/10/18 10:32:30;;;;;;;3.70;1.65;;;;;;;;;;4961996;28;92740;-76
2023/10/18 10:35:17;;;;;;;4.25;1.60;;;;;;;;;;4964769;28;95418;-76
2023/10/18 10:37:47;;;;;;;4.13;1.80;;;;;;;;;;4961439;28;94840;-77
2023/10/18 10:40:36;;;;;;;4.43;1.80;;;;;;;;;;4961829;28;92433;-79
2023/10/18 10:43:04;;;;;;;4.72;1.60;;;;;;;;;;4964866;28;95397;-77
2023/10/18 10:45:38;;;;;;;3.20;1.50;;;;;;;;;;4967252;28;95935;-77
2023/10/18 10:51:06;;;;;;;4.72;1.80;;;;;;;;;;4964838;28;93039;-77
2023/10/18 10:53:45;;;;;;;3.75;1.70;;;;;;;;;;4957917;28;92637;-78
2023/10/18 10:56:18;;;;;;;2.97;1.50;;;;;;;;;;4967351;28;95674;-79
2023/10/18 10:58:55;;;;;;;3.83;1.60;;;;;;;;;;4951575;28;95461;-78
2023/10/18 11:04:24;;;;;;;3.95;1.58;;;;;;;;;;4959418;28;92910;-78
2023/10/18 11:06:57;;;;;;;3.35;1.50;;;;;;;;;;4967241;28;92859;-78
2023/10/18 11:09:32;;;;;;;3.50;1.60;;;;;;;;;;4969156;28;95068;-79
2023/10/18 11:12:12;;;;;;;3.10;1.50;;;;;;;;;;4963150;28;93076;-78
2023/10/18 11:14:38;;;;;;;3.67;1.55;;;;;;;;;;4967025;28;92605;-78
2023/10/18 11:19:51;;;;;;;3.13;1.50;;;;;;;;;;4969372;28;93525;-77
2023/10/18 11:22:22;;;;;;;3.83;1.77;;;;;;;;;;4966666;28;92659;-78
2023/10/18 11:24:50;;;;;;;4.07;1.65;;;;;;;;;;4985267;28;93132;-77
2023/10/18 11:27:37;;;;;;;3.58;1.48;;;;;;;;;;4970456;28;92300;-77
2023/10/18 11:30:18;;;;;;;3.55;1.63;;;;;;;;;;4967520;28;92457;-78
2023/10/18 11:32:48;;;;;;;4.57;1.60;;;;;;;;;;4975027;28;92811;-77
2023/10/18 11:35:25;;;;;;;3.55;1.70;;;;;;;;;;4968828;28;95312;-77
2023/10/18 11:37:52;;;;;;;3.22;1.50;;;;;;;;;;4971251;28;95614;-77
2023/10/18 11:40:21;;;;;;;3.88;1.52;;;;;;;;;;4962784;28;95053;-77
2023/10/18 11:43:21;;;;;;;3.60;1.52;;;;;;;;;;4971079;28;92440;-77
2023/10/18 11:45:45;;;;;;;4.13;1.40;;;;;;;;;;4971632;28;92867;-77
2023/10/18 11:48:14;;;;;;;4.32;1.80;;;;;;;;;;4971092;28;93211;-77
2023/10/18 11:50:41;;;;;;;3.05;1.45;;;;;;;;;;4970798;28;92915;-78
2023/10/18 11:53:08;;;;;;;;;;;;;;;;;;4969250;28;93124;-77
2023/10/18 11:55:37;;;;;;;3.22;1.40;;;;;;;;;;4973205;28;119097;-78
2023/10/18 11:58:08;;;;;;;4.07;1.58;;;;;;;;;;4969176;28;93154;-77
2023/10/18 12:00:38;;;;;;;3.42;1.55;;;;;;;;;;4967763;28;95425;-77
2023/10/18 12:03:05;;;;;;;3.72;1.23;;;;;;;;;;4968322;28;93095;-77
2023/10/18 12:05:32;;;;;;;2.92;1.42;;;;;;;;;;4969733;28;93225;-77
2023/10/18 12:08:05;;;;;;;3.55;1.40;;;;;;;;;;4970978;28;93883;-76
2023/10/18 12:10:35;;;;;;;2.85;1.35;;;;;;;;;;4974249;28;92864;-77
2023/10/18 12:13:24;;;;;;;3.35;1.50;;;;;;;;;;4969880;28;93756;-76
2023/10/18 12:15:52;;;;;;;3.75;1.40;;;;;;;;;;4971083;28;93974;-77
2023/10/18 12:18:21;;;;;;;3.53;1.52;;;;;;;;;;4989244;28;91810;-77
2023/10/18 12:20:51;;;;;;;4.03;1.80;;;;;;;;;;4970038;28;93029;-77
2023/10/18 12:23:21;;;;;;;3.75;1.40;;;;;;;;;;4984578;28;93192;-77
2023/10/18 12:25:48;;;;;;;3.53;1.45;;;;;;;;;;4967520;28;94979;-76
2023/10/18 12:28:19;;;;;;;3.60;1.20;;;;;;;;;;4974720;28;94096;-77
2023/10/18 12:30:55;;;;;;;3.20;1.40;;;;;;;;;;4967260;28;92585;-77
2023/10/18 12:33:27;;;;;;;2.85;1.50;;;;;;;;;;4971864;28;92823;-77
2023/10/18 12:35:58;;;;;;;4.65;1.70;;;;;;;;;;4969060;28;93196;-78
2023/10/18 12:38:31;;;;;;;4.10;1.58;;;;;;;;;;4970534;28;93011;-77
2023/10/18 12:40:59;;;;;;;7.07;1.50;;;;;;;;;;4971547;28;93813;-77
2023/10/18 12:43:26;;;;;;;3.92;1.58;;;;;;;;;;4970133;28;91754;-77
2023/10/18 12:45:52;;;;;;;6.47;1.48;;;;;;;;;;4967189;28;92969;-77
2023/10/18 12:48:22;;;;;;;3.58;1.42;;;;;;;;;;4970384;27;93062;-77
2023/10/18 12:50:52;;;;;;;3.10;1.50;;;;;;;;;;4968704;28;95039;-77
2023/10/18 12:55:58;;;;;;;;;;;;;;;;;;4970856;28;93593;-77
2023/10/18 12:58:32;;;;;;;3.08;1.42;;;;;;;;;;4968167;28;92981;-76
2023/10/18 13:01:11;;;;;;;3.67;1.50;;;;;;;;;;4974569;28;93909;-78
2023/10/18 13:03:44;;;;;;;3.45;1.42;;;;;;;;;;4967858;28;92395;-77
2023/10/18 13:06:17;;;;;;;4.07;1.77;;;;;;;;;;4972175;28;92987;-76
2023/10/18 13:08:56;;;;;;;3.42;1.60;;;;;;;;;;4972414;28;93699;-77
2023/10/18 13:14:11;;;;;;;2.95;1.40;;;;;;;;;;4968620;28;94091;-77
2023/10/18 13:16:37;;;;;;;3.67;1.60;;;;;;;;;;4967711;28;95438;-77
2023/10/18 13:19:04;;;;;;;4.38;1.50;;;;;;;;;;4969349;28;97145;-77
2023/10/18 13:21:30;;;;;;;4.38;1.30;;;;;;;;;;4970338;28;93184;-77
2023/10/18 13:23:59;;;;;;;3.83;1.40;;;;;;;;;;4972388;28;94460;-77
2023/10/18 13:26:31;;;;;;;2.50;1.33;;;;;;;;;;4986901;28;98029;-77
2023/10/18 13:29:00;;;;;;;3.72;1.40;;;;;;;;;;4965216;28;93263;-77
2023/10/18 13:31:33;;;;;;;2.97;1.60;;;;;;;;;;4962114;28;92349;-77
2023/10/18 13:34:06;;;;;;;3.83;1.60;;;;;;;;;;4970174;28;92886;-77
2023/10/18 13:36:33;;;;;;;;;;;;;;;;;;4970235;28;93240;-77
2023/10/18 13:39:00;;;;;;;4.60;1.50;;;;;;;;;;4970606;28;93637;-77
2023/10/18 13:41:26;;;;;;;2.58;1.33;;;;;;;;;;4970751;28;95572;-77
2023/10/18 13:43:54;;;;;;;3.90;1.48;;;;;;;;;;4954723;28;93193;-77
2023/10/18 13:46:23;;;;;;;3.22;1.40;;;;;;;;;;4974289;28;92512;-77
2023/10/18 13:48:52;;;;;;;3.28;1.38;;;;;;;;;;4970727;28;94402;-77
2023/10/18 13:51:19;;;;;;;2.85;1.30;;;;;;;;;;4969468;28;99465;-77
2023/10/18 13:53:46;;;;;;;3.00;1.50;;;;;;;;;;4969215;28;92793;-77
2023/10/18 13:56:15;;;;;;;2.75;1.42;;;;;;;;;;4967839;28;93122;-77
2023/10/18 13:58:42;;;;;;;2.30;1.35;;;;;;;;;;4969488;28;92035;-77
2023/10/18 14:01:17;;;;;;;4.00;1.40;;;;;;;;;;4968737;28;92443;-77
2023/10/18 14:03:48;;;;;;;3.72;1.45;;;;;;;;;;4969213;28;94132;-77
2023/10/18 14:06:15;;;;;;;4.80;1.60;;;;;;;;;;4966936;28;94831;-77
2023/10/18 14:08:44;;;;;;;4.55;1.52;;;;;;;;;;4972078;28;95701;-77
2023/10/18 14:11:14;;;;;;;3.75;1.55;;;;;;;;;;4978905;28;92464;-78
2023/10/18 14:13:45;;;;;;;4.03;1.60;;;;;;;;;;4957900;28;93810;-77
2023/10/18 14:16:12;;;;;;;3.35;1.40;;;;;;;;;;4965350;28;94011;-77
2023/10/18 14:18:40;;;;;;;;;;;;;;;;;;4967589;28;92470;-77
2023/10/18 14:21:12;;;;;;;5.00;1.52;;;;;;;;;;4968065;28;105244;-77
2023/10/18 14:23:44;;;;;;;2.95;1.48;;;;;;;;;;4966637;28;95582;-77
2023/10/18 14:26:10;;;;;;;4.40;1.50;;;;;;;;;;4965989;28;92639;-77
2023/10/18 14:28:37;;;;;;;5.13;1.77;;;;;;;;;;4964843;28;93537;-75
2023/10/18 14:31:08;;;;;;;4.90;1.80;;;;;;;;;;4967894;28;95817;-75
2023/10/18 14:33:34;;;;;;;4.72;1.80;;;;;;;;;;4968572;28;95487;-75
2023/10/18 14:36:11;;;;;;;4.00;1.52;;;;;;;;;;4967073;28;93134;-75
2023/10/18 14:38:39;;;;;;;5.38;1.80;;;;;;;;;;4968109;28;92780;-76
2023/10/18 14:41:13;;;;;;;5.60;1.88;;;;;;;;;;4966663;28;92825;-76
2023/10/18 14:43:50;;;;;;;4.82;1.67;;;;;;;;;;4967861;28;93205;-76
2023/10/18 14:46:21;;;;;;;4.68;1.77;;;;;;;;;;4965813;28;92506;-76
2023/10/18 14:48:48;;;;;;;4.75;1.73;;;;;;;;;;4969482;28;92670;-76
2023/10/18 14:51:21;;;;;;;4.75;1.70;;;;;;;;;;4954219;28;93066;-76
2023/10/18 14:53:48;;;;;;;4.43;1.83;;;;;;;;;;4971886;28;92837;-76
2023/10/18 14:56:16;;;;;;;;;;;;;;;;;;4981110;28;95582;-76
2023/10/18 14:58:43;;;;;;;5.53;1.80;;;;;;;;;;4969913;28;92586;-76
2023/10/18 15:01:13;;;;;;;3.33;1.52;;;;;;;;;;4968723;28;92601;-76
2023/10/18 15:03:40;;;;;;;4.85;1.85;;;;;;;;;;4967193;28;93068;-77
2023/10/18 15:06:08;;;;;;;5.93;2.00;;;;;;;;;;4966817;28;92629;-76
2023/10/18 15:08:38;;;;;;;4.25;1.80;;;;;;;;;;4973420;28;93385;-76
2023/10/18 15:11:17;;;;;;;7.05;1.70;;;;;;;;;;4971780;28;94058;-76
2023/10/18 15:13:48;;;;;;;5.07;1.70;;;;;;;;;;4971628;28;91852;-76
2023/10/18 15:16:16;;;;;;;7.85;2.10;;;;;;;;;;4967171;28;92559;-75
2023/10/18 15:18:43;;;;;;;4.47;1.95;;;;;;;;;;4965755;28;92491;-76
2023/10/18 15:21:10;;;;;;;5.75;1.90;;;;;;;;;;4966684;28;94881;-76
2023/10/18 15:23:37;;;;;;;4.32;1.88;;;;;;;;;;4963835;28;93233;-76
2023/10/18 15:26:05;;;;;;;5.22;1.77;;;;;;;;;;4968389;28;93199;-76
2023/10/18 15:28:32;;;;;;;5.72;1.95;;;;;;;;;;4967241;28;92526;-77
2023/10/18 15:31:05;;;;;;;5.63;2.00;;;;;;;;;;4958610;28;93825;-76
2023/10/18 15:33:32;;;;;;;;;;;;;;;;;;4967087;28;92927;-77
2023/10/18 15:35:59;;;;;;;3.85;1.70;;;;;;;;;;4970997;28;94013;-77
2023/10/18 15:38:25;;;;;;;6.55;1.85;;;;;;;;;;4982075;28;92839;-77
2023/10/18 15:40:52;;;;;;;6.72;2.10;;;;;;;;;;4967384;28;92680;-76
2023/10/18 15:43:19;;;;;;;5.28;2.10;;;;;;;;;;4967566;28;92752;-77
2023/10/18 15:45:50;;;;;;;6.43;2.53;;;;;;;;;;4966023;28;95003;-79
2023/10/18 15:48:17;;;;;;;5.78;1.88;;;;;;;;;;4966838;28;95145;-76
2023/10/18 15:50:44;;;;;;;6.05;1.95;;;;;;;;;;4967536;28;93013;-76
2023/10/18 15:53:10;;;;;;;5.75;1.80;;;;;;;;;;4967752;28;92581;-76
2023/10/18 15:55:37;;;;;;;4.32;2.00;;;;;;;;;;4965799;28;96751;-76
2023/10/18 15:58:04;;;;;;;4.95;1.77;;;;;;;;;;4969891;28;93158;-76
2023/10/18 16:00:31;;;;;;;7.40;2.58;;;;;;;;;;4967641;28;93095;-77
2023/10/18 16:02:58;;;;;;;10.68;3.08;;;;;;;;;;4965533;28;93460;-76
2023/10/18 16:05:24;;;;;;;10.43;2.72;;;;;;;;;;4976644;28;92909;-77
2023/10/18 16:07:52;;;;;;;7.82;2.65;;;;;;;;;;4967182;28;92750;-77
2023/10/18 16:10:19;;;;;;;7.75;2.28;;;;;;;;;;4948903;28;95926;-77
2023/10/18 16:12:49;;;;;;;8.52;3.17;;;;;;;;;;4965795;28;93276;-77
2023/10/18 16:15:20;;;;;;;13.38;3.50;;;;;;;;;;4967009;28;93979;-77
2023/10/18 16:17:48;;;;;;;11.73;3.42;;;;;;;;;;4968307;28;93225;-77
2023/10/18 16:20:17;;;;;;;10.77;3.25;;;;;;;;;;4963031;28;92787;-76
2023/10/18 16:22:44;;;;;;;11.27;3.10;;;;;;;;;;4966359;28;93566;-76